Time;durP1;ratioP1;P1;durP2;ratioP2;P2;SDS_P1;SDS_P2;PMS_P1;PMS_P2;Temp;Humidity;BMP_temperature;BMP_pressure;BME280_temperature;BME280_humidity;BME280_pressure;Samples;Min_cycle;Max_cycle;Signal;HPM_P1;HPM_P2
2021/04/08 00:01:53;;;;;;;3.60;3.27;;;6.60;58.00;;;;;;5019901;28;20197;-42
2021/04/08 00:04:18;;;;;;;3.67;2.87;;;6.50;59.00;;;;;;5026884;28;20467;-42
2021/04/08 00:06:44;;;;;;;5.37;3.07;;;6.60;59.00;;;;;;5024989;28;20478;-42
2021/04/08 00:09:09;;;;;;;2.90;2.57;;;6.70;58.50;;;;;;5008658;28;20633;-43
2021/04/08 00:11:35;;;;;;;5.20;3.13;;;6.60;58.70;;;;;;5027178;28;20209;-43
2021/04/08 00:14:01;;;;;;;5.90;3.30;;;6.70;58.80;;;;;;5028096;28;20196;-42
2021/04/08 00:16:26;;;;;;;6.27;3.13;;;6.80;58.80;;;;;;5019434;28;20543;-42
2021/04/08 00:18:52;;;;;;;3.27;2.97;;;6.80;58.90;;;;;;5029284;28;20236;-42
2021/04/08 00:21:17;;;;;;;4.17;2.83;;;6.90;58.70;;;;;;5028033;28;20197;-42
2021/04/08 00:23:43;;;;;;;3.93;2.77;;;6.80;58.40;;;;;;5028822;28;20327;-43
2021/04/08 00:26:09;;;;;;;8.33;3.77;;;7.00;58.40;;;;;;5024737;28;20283;-43
2021/04/08 00:28:34;;;;;;;3.60;3.13;;;6.90;58.30;;;;;;5029755;28;20185;-42
2021/04/08 00:31:00;;;;;;;3.53;3.00;;;7.10;58.20;;;;;;5029560;28;20200;-42
2021/04/08 00:33:25;;;;;;;3.80;3.00;;;7.00;57.90;;;;;;5028128;28;20193;-42
2021/04/08 00:35:51;;;;;;;5.43;3.30;;;6.80;58.00;;;;;;5025929;28;20692;-42
2021/04/08 00:38:17;;;;;;;3.90;3.50;;;6.80;58.10;;;;;;5025705;28;20295;-43
2021/04/08 00:40:43;;;;;;;7.77;3.30;;;6.60;58.40;;;;;;5026166;28;20217;-42
2021/04/08 00:43:09;;;;;;;3.57;3.20;;;6.50;58.80;;;;;;5024597;28;20266;-42
2021/04/08 00:45:35;;;;;;;5.73;3.40;;;6.50;58.90;;;;;;5030401;28;20551;-44
2021/04/08 00:48:01;;;;;;;3.83;3.00;;;6.60;58.70;;;;;;5023266;28;20197;-43
2021/04/08 00:50:28;;;;;;;4.70;2.97;;;6.80;58.40;;;;;;5022076;28;20445;-42
2021/04/08 00:52:58;;;;;;;3.30;3.00;;;6.90;57.80;;;;;;5026579;28;20436;-44
2021/04/08 00:55:29;;;;;;;3.90;3.03;;;6.90;57.70;;;;;;5023269;28;20440;-42
2021/04/08 00:57:55;;;;;;;3.53;3.23;;;6.90;57.60;;;;;;5024591;28;20582;-42
2021/04/08 01:00:25;;;;;;;4.13;2.80;;;7.00;57.90;;;;;;5020270;28;20441;-42
2021/04/08 01:02:51;;;;;;;3.80;3.30;;;6.90;57.20;;;;;;5028976;28;20977;-42
2021/04/08 01:05:16;;;;;;;3.80;3.40;;;7.10;57.10;;;;;;5026461;28;20432;-42
2021/04/08 01:07:42;;;;;;;4.93;3.53;;;7.10;56.70;;;;;;5026819;28;20201;-42
2021/04/08 01:10:10;;;;;;;6.13;3.47;;;7.20;56.50;;;;;;5027591;28;20927;-42
2021/04/08 01:12:36;;;;;;;7.43;3.73;;;7.20;56.20;;;;;;5025051;28;20196;-42
2021/04/08 01:15:05;;;;;;;8.00;2.90;;;7.10;56.20;;;;;;5022115;28;20448;-42
2021/04/08 01:17:43;;;;;;;5.37;3.20;;;7.00;56.50;;;;;;5004254;28;20236;-42
2021/04/08 01:20:37;;;;;;;5.17;3.43;;;7.20;56.50;;;;;;5027499;28;20550;-42
2021/04/08 01:23:41;;;;;;;3.60;3.30;;;7.40;56.00;;;;;;5023932;28;20458;-42
2021/04/08 01:26:34;;;;;;;4.33;3.33;;;7.60;55.50;;;;;;5025257;28;20946;-42
2021/04/08 01:29:28;;;;;;;4.23;2.83;;;7.80;55.00;;;;;;5021358;28;20452;-42
2021/04/08 01:31:54;;;;;;;3.27;2.97;;;7.80;54.40;;;;;;5001531;28;20448;-42
2021/04/08 01:34:22;;;;;;;5.50;3.40;;;7.90;54.10;;;;;;5011329;28;20788;-42
2021/04/08 01:36:55;;;;;;;5.10;3.33;;;8.00;53.90;;;;;;5023843;28;20444;-43
2021/04/08 01:39:23;;;;;;;4.70;2.97;;;8.10;53.70;;;;;;5034033;28;20447;-42
2021/04/08 01:41:50;;;;;;;4.87;2.70;;;8.00;53.00;;;;;;5032038;28;20456;-42
2021/04/08 01:44:24;;;;;;;4.27;2.50;;;8.10;52.90;;;;;;5030465;28;20493;-42
2021/04/08 01:47:05;;;;;;;4.00;2.77;;;8.20;52.70;;;;;;5010406;28;20452;-43
2021/04/08 01:49:34;;;;;;;2.87;2.23;;;8.30;52.50;;;;;;5024489;28;20455;-42
2021/04/08 01:52:01;;;;;;;4.53;3.07;;;8.30;52.40;;;;;;5022733;28;20440;-43
2021/04/08 01:54:30;;;;;;;4.37;2.83;;;8.10;52.30;;;;;;5032394;28;20479;-42
2021/04/08 01:57:00;;;;;;;4.23;3.10;;;7.80;52.00;;;;;;5023089;28;20437;-41
2021/04/08 01:59:26;;;;;;;4.13;2.77;;;7.70;52.50;;;;;;5032896;28;20832;-42
2021/04/08 02:01:54;;;;;;;9.70;3.70;;;7.60;52.60;;;;;;5023684;28;20447;-42
2021/04/08 02:04:20;;;;;;;3.67;3.33;;;7.30;53.00;;;;;;5025350;28;20924;-43
2021/04/08 02:06:48;;;;;;;5.00;2.77;;;7.40;53.30;;;;;;5023655;28;20491;-42
2021/04/08 02:09:15;;;;;;;3.17;2.33;;;7.30;53.50;;;;;;5030356;28;20470;-42
2021/04/08 02:11:42;;;;;;;4.03;2.70;;;7.40;53.50;;;;;;5029025;28;20536;-43
2021/04/08 02:14:10;;;;;;;3.33;2.43;;;7.50;53.30;;;;;;5015724;28;20535;-42
2021/04/08 02:16:37;;;;;;;5.23;3.13;;;7.50;53.10;;;;;;5026586;28;20505;-43
2021/04/08 02:19:06;;;;;;;2.90;2.67;;;7.70;53.00;;;;;;5030547;28;20500;-42
2021/04/08 02:21:32;;;;;;;4.97;3.03;;;7.60;52.90;;;;;;5023973;28;20446;-43
2021/04/08 02:23:58;;;;;;;5.70;2.60;;;7.50;53.20;;;;;;5023397;28;20507;-42
2021/04/08 02:26:25;;;;;;;3.50;3.20;;;7.70;53.20;;;;;;5022283;28;20436;-42
2021/04/08 02:28:52;;;;;;;6.43;3.00;;;7.50;53.00;;;;;;5033536;28;20531;-43
2021/04/08 02:31:19;;;;;;;4.30;2.83;;;7.50;53.40;;;;;;5026572;28;20451;-42
2021/04/08 02:33:44;;;;;;;4.00;2.73;;;7.60;53.40;;;;;;5028363;28;20433;-43
2021/04/08 02:36:10;;;;;;;2.80;2.30;;;7.80;53.20;;;;;;5026790;28;20853;-43
2021/04/08 02:38:36;;;;;;;4.07;2.77;;;7.90;52.80;;;;;;5024409;28;20303;-42
2021/04/08 02:41:09;;;;;;;3.83;2.50;;;7.80;52.40;;;;;;5029080;28;20201;-43
2021/04/08 02:43:36;;;;;;;3.23;2.53;;;7.90;52.50;;;;;;5029327;28;20505;-42
2021/04/08 02:46:03;;;;;;;4.20;3.07;;;7.90;52.40;;;;;;5031887;28;20439;-42
2021/04/08 02:48:32;;;;;;;3.87;3.10;;;8.10;52.30;;;;;;5025043;28;20456;-43
2021/04/08 02:51:20;;;;;;;3.07;2.47;;;8.10;52.30;;;;;;5027864;28;20440;-42
2021/04/08 02:54:17;;;;;;;6.53;3.07;;;8.20;52.20;;;;;;5024167;28;20801;-42
2021/04/08 02:56:51;;;;;;;3.77;2.50;;;8.30;51.90;;;;;;5026084;28;20511;-44
2021/04/08 02:59:24;;;;;;;3.80;2.23;;;8.40;51.70;;;;;;5023214;28;20534;-42
2021/04/08 03:01:59;;;;;;;5.50;2.40;;;8.50;51.50;;;;;;5026198;28;20451;-43
2021/04/08 03:04:26;;;;;;;3.57;2.40;;;8.50;51.50;;;;;;5033018;28;20489;-43
2021/04/08 03:06:53;;;;;;;3.50;3.13;;;8.50;51.60;;;;;;5025455;28;20459;-43
2021/04/08 03:09:34;;;;;;;5.37;2.80;;;8.30;51.70;;;;;;5031339;28;20436;-42
2021/04/08 03:12:04;;;;;;;3.27;2.37;;;8.40;52.00;;;;;;5023619;28;20444;-42
2021/04/08 03:14:32;;;;;;;3.97;2.33;;;8.30;52.20;;;;;;5025525;28;20455;-42
2021/04/08 03:17:00;;;;;;;3.87;2.73;;;8.50;52.20;;;;;;5026658;28;20476;-42
2021/04/08 03:19:31;;;;;;;6.80;3.37;;;8.50;52.20;;;;;;5028156;28;20561;-42
2021/04/08 03:21:58;;;;;;;4.20;2.87;;;8.50;52.10;;;;;;5026707;28;20470;-41
2021/04/08 03:24:27;;;;;;;4.90;2.87;;;8.40;52.10;;;;;;5025482;28;20440;-43
2021/04/08 03:26:53;;;;;;;3.13;2.73;;;8.50;52.10;;;;;;5021696;28;20441;-42
2021/04/08 03:29:19;;;;;;;4.53;2.63;;;8.50;52.20;;;;;;5029247;28;20470;-43
2021/04/08 03:31:46;;;;;;;3.83;2.90;;;8.50;52.30;;;;;;5028577;28;20442;-42
2021/04/08 03:34:13;;;;;;;5.23;3.30;;;8.60;52.40;;;;;;5024440;28;20513;-42
2021/04/08 03:36:40;;;;;;;3.03;2.73;;;8.60;52.40;;;;;;5030812;28;20487;-44
2021/04/08 03:39:07;;;;;;;5.43;2.83;;;8.60;52.60;;;;;;5025650;28;20495;-43
2021/04/08 03:41:38;;;;;;;4.77;3.20;;;8.50;52.50;;;;;;5029598;28;20436;-42
2021/04/08 03:44:07;;;;;;;6.90;4.37;;;8.50;52.50;;;;;;5032457;28;20460;-42
2021/04/08 03:46:35;;;;;;;3.10;2.80;;;8.60;52.30;;;;;;5024449;28;20801;-43
2021/04/08 03:49:01;;;;;;;3.30;3.10;;;8.60;52.00;;;;;;5028364;28;20485;-43
2021/04/08 03:51:28;;;;;;;4.60;4.20;;;8.50;51.30;;;;;;5019375;28;20468;-43
2021/04/08 03:53:55;;;;;;;3.73;3.40;;;8.50;51.00;;;;;;5024991;28;20835;-42
2021/04/08 03:56:21;;;;;;;4.03;3.47;;;8.40;50.80;;;;;;5023517;28;20428;-42
2021/04/08 03:58:46;;;;;;;9.00;3.37;;;8.30;50.50;;;;;;5027839;28;21074;-42
2021/04/08 04:01:16;;;;;;;4.43;3.80;;;8.20;50.10;;;;;;5024439;28;20523;-42
2021/04/08 04:03:43;;;;;;;3.93;3.40;;;8.10;50.10;;;;;;5019628;28;20280;-43
2021/04/08 04:06:11;;;;;;;6.97;3.60;;;8.10;50.20;;;;;;5028972;28;20441;-42
2021/04/08 04:08:37;;;;;;;6.30;3.80;;;8.20;50.60;;;;;;5027209;28;20444;-43
2021/04/08 04:11:04;;;;;;;4.67;3.37;;;8.20;50.40;;;;;;5025462;28;20891;-42
2021/04/08 04:13:31;;;;;;;3.87;3.47;;;8.10;50.30;;;;;;5031534;28;20463;-44
2021/04/08 04:15:58;;;;;;;8.97;4.13;;;8.10;50.30;;;;;;5026964;28;20443;-42
2021/04/08 04:18:23;;;;;;;4.47;3.90;;;8.10;50.00;;;;;;5023080;28;20479;-42
2021/04/08 04:20:49;;;;;;;5.40;3.57;;;8.00;49.70;;;;;;5026694;28;20456;-43
2021/04/08 04:23:15;;;;;;;9.40;4.23;;;8.00;49.10;;;;;;5022080;28;20207;-42
2021/04/08 04:25:40;;;;;;;4.27;3.47;;;7.80;48.70;;;;;;5031114;28;20193;-42
2021/04/08 04:28:06;;;;;;;7.60;3.63;;;7.90;48.50;;;;;;5029881;28;20224;-42
2021/04/08 04:30:32;;;;;;;4.17;3.83;;;7.90;48.30;;;;;;5029677;28;20594;-43
2021/04/08 04:32:58;;;;;;;4.10;3.10;;;7.70;47.90;;;;;;5029894;28;20435;-42
2021/04/08 04:35:23;;;;;;;6.30;3.77;;;7.70;48.10;;;;;;5024079;28;20276;-42
2021/04/08 04:37:50;;;;;;;5.00;3.47;;;7.80;47.90;;;;;;5024843;28;20229;-42
2021/04/08 04:40:16;;;;;;;8.37;3.60;;;7.80;47.30;;;;;;5026969;28;20248;-42
2021/04/08 04:42:43;;;;;;;4.83;3.43;;;7.80;46.90;;;;;;5024093;28;20429;-43
2021/04/08 04:45:11;;;;;;;5.53;3.67;;;7.90;46.90;;;;;;5021770;28;20444;-42
2021/04/08 04:47:40;;;;;;;3.60;3.30;;;7.80;46.70;;;;;;5024830;28;20433;-42
2021/04/08 04:50:09;;;;;;;4.97;4.03;;;7.90;46.70;;;;;;5023370;28;20456;-42
2021/04/08 04:52:34;;;;;;;4.77;3.67;;;7.90;46.60;;;;;;5025761;28;20796;-42
2021/04/08 04:55:00;;;;;;;8.80;4.30;;;8.00;46.40;;;;;;5033307;28;20440;-42
2021/04/08 04:57:25;;;;;;;5.57;3.10;;;8.00;46.20;;;;;;5026420;28;20580;-42
2021/04/08 04:59:51;;;;;;;7.50;3.20;;;8.00;46.30;;;;;;5022896;28;20196;-42
2021/04/08 05:02:17;;;;;;;6.43;3.13;;;8.10;46.30;;;;;;5027105;28;20194;-42
2021/04/08 05:04:43;;;;;;;5.60;3.33;;;8.20;46.30;;;;;;5028987;28;20557;-42
2021/04/08 05:07:08;;;;;;;4.10;3.47;;;8.20;45.80;;;;;;5031884;28;20223;-43
2021/04/08 05:09:34;;;;;;;9.23;3.97;;;8.20;46.60;;;;;;5031546;28;20476;-44
2021/04/08 05:12:00;;;;;;;7.60;3.90;;;8.30;46.10;;;;;;5005932;28;20223;-44
2021/04/08 05:14:26;;;;;;;7.53;3.97;;;8.30;46.10;;;;;;5028973;28;20193;-42
2021/04/08 05:16:53;;;;;;;8.80;3.70;;;8.50;46.10;;;;;;5026581;28;20194;-41
2021/04/08 05:19:19;;;;;;;17.43;3.30;;;8.60;47.40;;;;;;5023621;28;20491;-41
2021/04/08 05:21:45;;;;;;;7.37;4.13;;;8.90;49.90;;;;;;5026618;28;20450;-41
2021/04/08 05:24:10;;;;;;;12.20;5.30;;;9.20;49.90;;;;;;5025806;28;20186;-41
2021/04/08 05:26:36;;;;;;;6.60;3.60;;;9.50;49.00;;;;;;5024855;28;20185;-41
2021/04/08 05:29:02;;;;;;;6.63;4.20;;;9.60;47.80;;;;;;5022261;28;20189;-41
2021/04/08 05:31:29;;;;;;;4.33;3.50;;;9.80;47.70;;;;;;5024153;28;20197;-41
2021/04/08 05:33:55;;;;;;;9.40;4.57;;;9.70;47.00;;;;;;5026875;28;20961;-41
2021/04/08 05:36:20;;;;;;;6.77;6.10;;;9.70;47.20;;;;;;5026637;28;20472;-40
2021/04/08 05:38:46;;;;;;;7.23;6.20;;;9.70;47.40;;;;;;5027452;28;20229;-41
2021/04/08 05:41:12;;;;;;;9.03;6.67;;;9.80;47.70;;;;;;5025720;28;20205;-41
2021/04/08 05:43:38;;;;;;;6.93;4.43;;;9.80;47.40;;;;;;5014119;28;20642;-41
2021/04/08 05:46:06;;;;;;;8.27;3.87;;;9.70;47.60;;;;;;5021685;28;20197;-41
2021/04/08 05:48:31;;;;;;;7.20;3.90;;;9.60;47.80;;;;;;5032269;28;20860;-41
2021/04/08 05:50:57;;;;;;;5.00;3.00;;;9.50;47.90;;;;;;5027793;28;20460;-41
2021/04/08 05:53:22;;;;;;;6.33;3.70;;;9.50;48.00;;;;;;5025982;28;20182;-41
2021/04/08 05:55:48;;;;;;;5.60;3.20;;;9.50;48.00;;;;;;5023746;28;20193;-41
2021/04/08 05:58:13;;;;;;;3.43;2.97;;;9.60;48.00;;;;;;5022699;28;20221;-41
2021/04/08 06:00:39;;;;;;;5.40;3.70;;;9.70;47.80;;;;;;5030792;28;20272;-41
2021/04/08 06:03:05;;;;;;;3.90;3.10;;;9.80;47.50;;;;;;5029800;28;20255;-42
2021/04/08 06:05:30;;;;;;;4.60;4.13;;;9.90;46.90;;;;;;5029263;28;20204;-41
2021/04/08 06:07:56;;;;;;;4.80;3.90;;;9.90;46.90;;;;;;5025427;28;20197;-41
2021/04/08 06:10:22;;;;;;;7.83;4.77;;;9.90;46.00;;;;;;5023610;28;20320;-41
2021/04/08 06:12:49;;;;;;;7.63;6.43;;;9.60;45.30;;;;;;5021639;28;20198;-41
2021/04/08 06:15:15;;;;;;;16.27;10.63;;;9.50;45.30;;;;;;5030471;28;20190;-41
2021/04/08 06:17:41;;;;;;;8.20;5.53;;;9.40;45.10;;;;;;5026032;28;20886;-40
2021/04/08 06:20:07;;;;;;;10.83;7.90;;;9.40;45.10;;;;;;5021777;28;20436;-41
2021/04/08 06:22:33;;;;;;;7.37;5.13;;;9.30;44.70;;;;;;5027313;28;20581;-41
2021/04/08 06:24:59;;;;;;;9.27;6.23;;;9.10;44.60;;;;;;5031860;28;20507;-40
2021/04/08 06:27:24;;;;;;;7.10;4.57;;;9.20;44.70;;;;;;5026714;28;20198;-41
2021/04/08 06:29:50;;;;;;;7.80;4.33;;;9.00;44.40;;;;;;5029663;28;20546;-41
2021/04/08 06:32:16;;;;;;;5.77;4.57;;;8.90;45.10;;;;;;5023382;28;20193;-41
2021/04/08 06:34:41;;;;;;;8.40;5.17;;;9.00;45.70;;;;;;5035391;28;20281;-41
2021/04/08 06:37:08;;;;;;;6.30;4.20;;;9.20;45.30;;;;;;5018679;28;20641;-41
2021/04/08 06:39:35;;;;;;;8.80;5.93;;;9.10;44.30;;;;;;5025403;28;20308;-41
2021/04/08 06:42:01;;;;;;;6.50;5.43;;;8.90;44.50;;;;;;5027212;28;20444;-41
2021/04/08 06:44:27;;;;;;;6.40;4.10;;;8.90;44.40;;;;;;5022583;28;20444;-41
2021/04/08 06:46:57;;;;;;;9.13;4.77;;;8.90;43.90;;;;;;5028808;28;20724;-41
2021/04/08 06:49:39;;;;;;;5.73;4.00;;;8.70;44.10;;;;;;5033007;28;20486;-42
2021/04/08 06:52:07;;;;;;;5.70;4.50;;;8.60;43.80;;;;;;5020155;28;20505;-41
2021/04/08 06:54:33;;;;;;;5.47;4.07;;;8.70;43.80;;;;;;5030425;28;20432;-41
2021/04/08 06:57:00;;;;;;;7.40;4.37;;;8.90;43.60;;;;;;5023179;28;20450;-41
2021/04/08 06:59:26;;;;;;;4.50;3.60;;;9.30;43.30;;;;;;5036053;28;20518;-41
2021/04/08 07:01:51;;;;;;;6.00;3.93;;;9.50;42.50;;;;;;5028319;28;20442;-43
2021/04/08 07:04:17;;;;;;;6.67;3.90;;;9.70;41.70;;;;;;5032400;28;20428;-43
2021/04/08 07:06:43;;;;;;;4.90;3.90;;;9.60;41.70;;;;;;5028800;28;20251;-42
2021/04/08 07:09:12;;;;;;;5.77;3.90;;;9.80;41.40;;;;;;5026137;28;20957;-42
2021/04/08 07:11:40;;;;;;;6.90;4.40;;;9.70;41.20;;;;;;5033270;28;20574;-42
2021/04/08 07:14:10;;;;;;;6.20;3.93;;;9.70;41.30;;;;;;5028910;28;20440;-42
2021/04/08 07:16:36;;;;;;;5.40;4.00;;;9.80;40.80;;;;;;5027436;28;20939;-42
2021/04/08 07:19:04;;;;;;;5.43;4.13;;;10.00;40.40;;;;;;5025479;28;20498;-42
2021/04/08 07:21:31;;;;;;;6.70;4.07;;;10.10;40.10;;;;;;5030433;28;20479;-43
2021/04/08 07:24:07;;;;;;;5.43;3.83;;;10.20;39.30;;;;;;5029157;28;20532;-43
2021/04/08 07:27:02;;;;;;;9.53;3.97;;;10.30;39.00;;;;;;5020115;28;20475;-43
2021/04/08 07:29:39;;;;;;;4.57;3.63;;;10.30;38.60;;;;;;5033090;28;20435;-43
2021/04/08 07:32:31;;;;;;;8.40;3.40;;;10.20;38.50;;;;;;5017006;28;20439;-42
2021/04/08 07:35:15;;;;;;;7.23;4.13;;;10.10;38.50;;;;;;5004419;28;20539;-43
2021/04/08 07:37:43;;;;;;;5.70;3.83;;;10.20;38.70;;;;;;5021890;28;20852;-42
2021/04/08 07:40:16;;;;;;;3.60;3.03;;;10.50;38.60;;;;;;5024341;28;20951;-43
2021/04/08 07:42:43;;;;;;;4.00;3.10;;;10.70;37.00;;;;;;5026492;28;20432;-43
2021/04/08 07:45:10;;;;;;;3.17;2.87;;;10.60;36.30;;;;;;5023959;28;20474;-43
2021/04/08 07:47:40;;;;;;;6.73;3.80;;;10.70;35.30;;;;;;5029442;28;20439;-43
2021/04/08 07:50:05;;;;;;;5.97;3.53;;;11.00;35.10;;;;;;5032514;28;20554;-43
2021/04/08 07:52:38;;;;;;;8.60;3.20;;;11.20;35.60;;;;;;5035150;28;20970;-43
2021/04/08 07:55:14;;;;;;;8.10;4.93;;;11.30;36.00;;;;;;5032640;28;20219;-43
2021/04/08 07:58:08;;;;;;;6.03;4.40;;;11.50;35.90;;;;;;5011978;28;20888;-43
2021/04/08 08:00:44;;;;;;;4.20;3.80;;;11.70;35.30;;;;;;5017403;28;20540;-43
2021/04/08 08:03:31;;;;;;;5.60;3.50;;;11.70;34.70;;;;;;5023704;28;20458;-43
2021/04/08 08:05:59;;;;;;;5.10;4.00;;;11.50;33.40;;;;;;5021774;28;21394;-45
2021/04/08 08:08:45;;;;;;;4.23;3.47;;;11.80;32.80;;;;;;5022596;28;20483;-42
2021/04/08 08:11:13;;;;;;;3.40;3.10;;;12.10;31.90;;;;;;5018135;28;20802;-43
2021/04/08 08:13:51;;;;;;;5.43;3.30;;;12.00;30.60;;;;;;5024304;28;20508;-44
2021/04/08 08:16:25;;;;;;;6.07;3.20;;;11.80;29.40;;;;;;5012345;28;20548;-43
2021/04/08 08:18:52;;;;;;;3.67;2.90;;;11.90;29.70;;;;;;5029519;28;20586;-43
2021/04/08 08:21:20;;;;;;;7.07;4.07;;;12.10;29.70;;;;;;5031435;28;20470;-43
2021/04/08 08:23:52;;;;;;;7.93;4.30;;;12.10;29.50;;;;;;5030322;28;20437;-43
2021/04/08 08:26:43;;;;;;;3.30;3.00;;;11.90;30.00;;;;;;5024212;28;20432;-42
2021/04/08 08:29:09;;;;;;;4.50;3.03;;;11.60;29.70;;;;;;5023173;28;21215;-44
2021/04/08 08:32:00;;;;;;;6.37;3.83;;;11.70;29.80;;;;;;5028396;28;20443;-43
2021/04/08 08:34:29;;;;;;;6.37;3.27;;;11.80;29.40;;;;;;5029169;28;20197;-44
2021/04/08 08:36:57;;;;;;;6.47;3.37;;;11.90;28.90;;;;;;5018201;28;20447;-43
2021/04/08 08:39:26;;;;;;;5.50;3.43;;;12.20;29.90;;;;;;5023026;28;20583;-43
2021/04/08 08:41:53;;;;;;;3.90;3.50;;;12.50;29.60;;;;;;5017179;28;20436;-43
2021/04/08 08:44:20;;;;;;;4.33;3.23;;;12.70;29.30;;;;;;5024112;28;20455;-43
2021/04/08 08:47:18;;;;;;;5.73;3.50;;;12.60;29.10;;;;;;5025845;28;20447;-43
2021/04/08 08:49:51;;;;;;;5.97;3.90;;;12.60;29.60;;;;;;5027288;28;20449;-43
2021/04/08 08:52:37;;;;;;;6.97;5.17;;;12.70;29.90;;;;;;5036401;28;20453;-43
2021/04/08 08:55:09;;;;;;;4.10;3.70;;;12.50;30.00;;;;;;5034021;28;20448;-43
2021/04/08 08:57:37;;;;;;;5.13;4.63;;;12.50;30.10;;;;;;5033548;28;20542;-43
2021/04/08 09:00:05;;;;;;;8.67;4.83;;;12.40;30.00;;;;;;5033146;28;20958;-42
2021/04/08 09:02:32;;;;;;;7.23;4.00;;;12.40;30.90;;;;;;5036724;28;20849;-42
2021/04/08 09:05:00;;;;;;;7.80;4.30;;;12.10;30.70;;;;;;5034413;28;20951;-42
2021/04/08 09:07:28;;;;;;;7.70;4.20;;;12.00;31.00;;;;;;5037643;28;20436;-42
2021/04/08 09:09:58;;;;;;;6.00;5.07;;;11.70;31.20;;;;;;5033200;28;20459;-43
2021/04/08 09:12:24;;;;;;;6.30;4.30;;;11.60;32.10;;;;;;5036473;28;20523;-43
2021/04/08 09:14:50;;;;;;;4.37;3.97;;;11.40;31.90;;;;;;5035127;28;20463;-43
2021/04/08 09:17:43;;;;;;;5.30;4.07;;;11.20;32.60;;;;;;5034693;28;20467;-43
2021/04/08 09:20:13;;;;;;;7.43;5.00;;;11.30;32.90;;;;;;5030117;28;20999;-43
2021/04/08 09:22:52;;;;;;;3.93;3.07;;;11.50;33.20;;;;;;5031202;28;20439;-42
2021/04/08 09:25:19;;;;;;;3.70;3.20;;;11.50;32.80;;;;;;5024100;28;20528;-44
2021/04/08 09:27:59;;;;;;;6.53;4.47;;;11.40;32.90;;;;;;5034385;28;20943;-43
2021/04/08 09:33:43;;;;;;;4.63;4.07;;;12.10;33.70;;;;;;5027996;28;20504;-41
2021/04/08 09:36:41;;;;;;;4.30;3.37;;;12.30;32.40;;;;;;5024928;28;20501;-42
2021/04/08 09:39:09;;;;;;;5.30;4.13;;;12.40;32.30;;;;;;5017339;28;20518;-42
2021/04/08 09:41:47;;;;;;;5.80;3.70;;;12.40;32.20;;;;;;5026095;28;20446;-41
2021/04/08 09:44:14;;;;;;;8.80;4.23;;;12.40;31.40;;;;;;5027140;28;20443;-41
2021/04/08 09:46:49;;;;;;;4.57;4.17;;;12.50;31.60;;;;;;5016248;28;20517;-40
2021/04/08 09:49:34;;;;;;;8.47;4.27;;;12.50;32.20;;;;;;5026393;28;20523;-41
2021/04/08 09:52:00;;;;;;;7.10;4.83;;;12.30;32.90;;;;;;5017261;28;20436;-41
2021/04/08 09:54:39;;;;;;;6.87;4.40;;;11.90;33.60;;;;;;5030288;28;20434;-42
2021/04/08 09:57:06;;;;;;;5.70;4.40;;;11.90;34.10;;;;;;5028456;28;20439;-41
2021/04/08 09:59:58;;;;;;;5.80;4.07;;;11.90;34.50;;;;;;5022404;28;20441;-41
2021/04/08 10:02:25;;;;;;;4.60;4.20;;;11.90;34.80;;;;;;5016515;28;20454;-41
2021/04/08 10:05:04;;;;;;;4.37;3.97;;;12.10;35.30;;;;;;5025532;28;20448;-40
2021/04/08 10:07:30;;;;;;;5.10;4.10;;;12.10;35.50;;;;;;5018353;28;20440;-41
2021/04/08 10:09:56;;;;;;;6.40;4.40;;;12.20;35.70;;;;;;5021900;28;20966;-41
2021/04/08 10:12:34;;;;;;;7.00;4.23;;;12.30;35.60;;;;;;5030640;28;20280;-41
2021/04/08 10:15:00;;;;;;;4.33;3.93;;;12.40;36.20;;;;;;5023136;28;20432;-41
2021/04/08 10:17:36;;;;;;;5.60;4.30;;;12.50;36.90;;;;;;5026087;28;20527;-41
2021/04/08 10:20:04;;;;;;;6.23;4.37;;;12.80;35.70;;;;;;5025347;28;20922;-41
2021/04/08 10:22:39;;;;;;;6.70;3.90;;;12.70;34.80;;;;;;5025961;28;20442;-40
2021/04/08 10:25:05;;;;;;;4.43;3.90;;;12.80;34.60;;;;;;5037505;28;20442;-41
2021/04/08 10:27:31;;;;;;;8.50;4.30;;;12.90;34.70;;;;;;5026982;28;20440;-41
2021/04/08 10:29:57;;;;;;;5.20;3.63;;;12.90;34.80;;;;;;5025284;28;20519;-41
2021/04/08 10:32:33;;;;;;;4.03;3.63;;;12.70;33.60;;;;;;5026015;28;20213;-41
2021/04/08 10:35:00;;;;;;;4.50;3.87;;;12.60;33.80;;;;;;5028480;28;20587;-40
2021/04/08 10:37:25;;;;;;;5.37;4.70;;;12.60;33.60;;;;;;5029072;28;20464;-41
2021/04/08 10:39:51;;;;;;;4.80;3.97;;;12.60;34.20;;;;;;5027645;28;20485;-41
2021/04/08 10:42:16;;;;;;;9.60;4.70;;;12.60;34.60;;;;;;5024227;28;20193;-41
2021/04/08 10:44:50;;;;;;;6.73;3.43;;;12.70;34.10;;;;;;5021035;28;20272;-42
2021/04/08 10:47:21;;;;;;;6.97;3.73;;;12.70;34.20;;;;;;5016706;28;20284;-43
2021/04/08 10:49:57;;;;;;;5.40;3.90;;;12.80;33.80;;;;;;5030452;28;20511;-41
2021/04/08 10:52:30;;;;;;;6.10;4.60;;;12.90;33.60;;;;;;5029417;28;20447;-42
2021/04/08 10:55:12;;;;;;;5.40;4.20;;;12.90;33.40;;;;;;5025159;28;20476;-42
2021/04/08 10:57:41;;;;;;;5.00;4.47;;;13.00;33.80;;;;;;5032982;28;20463;-41
2021/04/08 11:00:09;;;;;;;8.40;4.43;;;13.10;33.40;;;;;;5030113;28;20443;-42
2021/04/08 11:02:40;;;;;;;8.93;5.00;;;13.20;33.00;;;;;;5026547;28;20807;-42
2021/04/08 11:05:14;;;;;;;5.67;4.50;;;13.20;33.00;;;;;;5032612;28;20440;-41
2021/04/08 11:07:41;;;;;;;8.80;5.50;;;13.10;34.00;;;;;;5026171;28;20425;-41
2021/04/08 11:10:13;;;;;;;7.97;6.10;;;13.20;33.20;;;;;;5034199;28;20440;-42
2021/04/08 11:12:38;;;;;;;5.83;4.90;;;13.30;32.70;;;;;;5028724;28;20458;-42
2021/04/08 11:15:06;;;;;;;4.37;3.97;;;13.00;31.90;;;;;;5029176;28;20440;-42
2021/04/08 11:17:33;;;;;;;5.57;5.03;;;13.10;32.60;;;;;;5039343;28;20243;-42
2021/04/08 11:20:00;;;;;;;9.00;5.07;;;13.30;33.80;;;;;;5021127;28;20513;-42
2021/04/08 11:22:32;;;;;;;6.73;6.03;;;13.40;32.90;;;;;;5019974;28;20470;-42
2021/04/08 11:24:59;;;;;;;6.20;4.93;;;13.50;32.30;;;;;;5017000;28;20979;-42
2021/04/08 11:27:29;;;;;;;6.93;5.47;;;13.50;32.40;;;;;;5026862;28;20445;-44
2021/04/08 11:29:56;;;;;;;8.43;5.57;;;13.50;32.80;;;;;;5026892;28;20444;-43
2021/04/08 11:32:22;;;;;;;8.13;5.07;;;13.60;33.00;;;;;;5031025;28;20443;-42
2021/04/08 11:34:52;;;;;;;5.97;4.73;;;13.60;32.90;;;;;;5032026;28;20440;-43
2021/04/08 11:37:30;;;;;;;8.87;5.37;;;13.50;31.90;;;;;;5030592;28;20201;-43
2021/04/08 11:39:59;;;;;;;7.53;5.60;;;13.20;31.50;;;;;;5023553;28;20434;-43
2021/04/08 11:42:25;;;;;;;5.80;4.77;;;13.40;32.00;;;;;;5027754;28;21097;-42
2021/04/08 11:44:53;;;;;;;5.20;4.70;;;13.40;32.10;;;;;;5030429;28;20428;-43
2021/04/08 11:47:21;;;;;;;5.43;4.33;;;13.10;31.30;;;;;;5029972;28;20428;-43
2021/04/08 11:49:54;;;;;;;7.37;5.10;;;13.20;31.90;;;;;;5025804;28;20467;-43
2021/04/08 11:52:22;;;;;;;5.53;5.13;;;13.40;32.50;;;;;;5018388;28;20952;-41
2021/04/08 11:54:59;;;;;;;5.53;4.57;;;13.80;33.00;;;;;;5032802;28;20447;-41
2021/04/08 11:57:25;;;;;;;4.53;4.13;;;14.10;32.20;;;;;;5039055;28;20510;-41
2021/04/08 11:59:58;;;;;;;5.63;5.13;;;14.30;31.70;;;;;;5027841;28;20424;-41
2021/04/08 12:02:31;;;;;;;7.90;5.30;;;14.20;30.80;;;;;;5029621;28;20440;-41
2021/04/08 12:04:57;;;;;;;5.50;4.77;;;14.20;30.80;;;;;;5036170;28;20531;-41
2021/04/08 12:07:23;;;;;;;5.20;4.70;;;14.20;32.20;;;;;;5029404;28;21019;-41
2021/04/08 12:09:49;;;;;;;7.97;4.63;;;14.20;31.30;;;;;;5025033;28;20221;-41
2021/04/08 12:12:15;;;;;;;11.50;4.27;;;14.40;32.40;;;;;;5033089;28;20273;-41
2021/04/08 12:15:04;;;;;;;10.70;4.57;;;14.40;31.60;;;;;;5043687;28;20432;-42
2021/04/08 12:17:31;;;;;;;4.80;4.20;;;14.60;31.90;;;;;;5035546;28;21614;-42
2021/04/08 12:20:20;;;;;;;5.20;4.80;;;14.80;30.60;;;;;;5015450;28;20441;-42
2021/04/08 12:22:46;;;;;;;8.77;5.00;;;14.60;30.20;;;;;;5025193;28;20459;-41
2021/04/08 12:25:19;;;;;;;7.30;4.60;;;14.70;30.70;;;;;;5022403;28;20436;-42
2021/04/08 12:27:45;;;;;;;5.33;4.83;;;14.90;31.20;;;;;;5024408;28;20247;-43
2021/04/08 12:30:13;;;;;;;8.10;5.10;;;14.90;31.90;;;;;;5031631;28;20463;-44
2021/04/08 12:32:38;;;;;;;7.57;5.83;;;15.00;31.40;;;;;;5020711;28;20436;-42
2021/04/08 12:35:07;;;;;;;5.97;5.20;;;15.20;31.20;;;;;;5022149;28;20495;-44
2021/04/08 12:37:32;;;;;;;4.60;4.20;;;15.30;30.50;;;;;;5020667;28;20500;-42
2021/04/08 12:39:58;;;;;;;6.40;4.77;;;15.40;30.20;;;;;;5026246;28;21207;-43
2021/04/08 12:42:25;;;;;;;4.80;4.40;;;15.30;29.30;;;;;;5031470;28;20698;-43
2021/04/08 12:44:51;;;;;;;6.17;4.27;;;15.20;29.70;;;;;;5021351;28;20579;-42
2021/04/08 12:47:19;;;;;;;6.03;5.03;;;15.30;29.30;;;;;;5024924;28;20534;-42
2021/04/08 12:49:44;;;;;;;5.47;4.40;;;15.40;29.20;;;;;;5031553;28;20440;-43
2021/04/08 12:52:10;;;;;;;8.73;4.53;;;15.50;29.80;;;;;;5013541;28;20432;-43
2021/04/08 12:54:36;;;;;;;6.77;4.77;;;15.40;29.60;;;;;;5029035;28;20653;-42
2021/04/08 12:57:02;;;;;;;5.97;4.80;;;15.50;29.40;;;;;;5030984;28;20193;-43
2021/04/08 12:59:28;;;;;;;8.83;4.30;;;15.70;29.40;;;;;;5028734;28;20645;-43
2021/04/08 13:01:54;;;;;;;7.57;5.00;;;15.60;29.30;;;;;;5030157;28;20429;-42
2021/04/08 13:04:19;;;;;;;5.30;4.70;;;15.60;29.70;;;;;;5028422;28;20779;-43
2021/04/08 13:06:45;;;;;;;4.83;4.43;;;15.70;29.20;;;;;;5031162;28;20231;-42
2021/04/08 13:09:11;;;;;;;6.63;6.03;;;15.70;29.30;;;;;;5031433;28;20199;-42